Time;durP1;ratioP1;P1;durP2;ratioP2;P2;SDS_P1;SDS_P2;PMS_P1;PMS_P2;Temp;Humidity;BMP_temperature;BMP_pressure;BME280_temperature;BME280_humidity;BME280_pressure;Samples;Min_cycle;Max_cycle;Signal;HPM_P1;HPM_P2
2023/03/10 00:00:52;;;;;;;27.37;22.60;;;1.40;99.90;;;;;;4883745;29;20455;-75
2023/03/10 00:03:21;;;;;;;28.63;22.93;;;1.40;99.90;;;;;;4898922;29;20483;-75
2023/03/10 00:05:49;;;;;;;28.90;23.40;;;1.40;99.90;;;;;;4900600;29;20446;-75
2023/03/10 00:08:17;;;;;;;28.70;22.43;;;1.40;99.90;;;;;;4898980;29;20854;-76
2023/03/10 00:10:46;;;;;;;25.10;21.10;;;1.40;99.90;;;;;;4898955;29;20462;-75
2023/03/10 00:13:14;;;;;;;28.30;22.23;;;1.40;99.90;;;;;;4898967;29;20482;-75
2023/03/10 00:15:43;;;;;;;27.07;22.97;;;1.40;99.90;;;;;;4898923;29;20459;-75
2023/03/10 00:18:11;;;;;;;30.73;23.93;;;1.40;99.90;;;;;;4898876;29;20462;-75
2023/03/10 00:20:40;;;;;;;26.83;21.73;;;1.40;99.90;;;;;;4900270;29;20462;-75
2023/03/10 00:23:08;;;;;;;29.43;23.83;;;1.40;99.90;;;;;;4898503;29;20493;-75
2023/03/10 00:25:37;;;;;;;25.93;21.43;;;1.40;99.90;;;;;;4899908;29;20519;-75
2023/03/10 00:28:05;;;;;;;26.50;22.30;;;1.40;99.90;;;;;;4899934;29;20494;-75
2023/03/10 00:30:34;;;;;;;26.73;21.67;;;1.40;99.90;;;;;;4898586;29;20503;-75
2023/03/10 00:33:02;;;;;;;24.17;20.97;;;1.40;99.90;;;;;;4899485;29;20479;-75
2023/03/10 00:35:30;;;;;;;23.57;19.33;;;1.40;99.90;;;;;;4900337;29;20465;-75
2023/03/10 00:38:01;;;;;;;24.37;21.73;;;1.40;99.90;;;;;;4898698;29;20949;-75
2023/03/10 00:40:29;;;;;;;27.33;22.90;;;1.40;99.90;;;;;;4898554;29;20794;-75
2023/03/10 00:42:58;;;;;;;25.33;20.93;;;1.40;99.90;;;;;;4898386;29;20492;-75
2023/03/10 00:45:26;;;;;;;25.30;21.60;;;1.40;99.90;;;;;;4898442;29;20464;-75
2023/03/10 00:47:54;;;;;;;28.13;22.90;;;1.40;99.90;;;;;;4899898;29;20791;-75
2023/03/10 00:50:22;;;;;;;24.27;21.10;;;1.40;99.90;;;;;;4898567;29;20452;-75
2023/03/10 00:52:50;;;;;;;27.70;21.93;;;1.40;99.90;;;;;;4899413;29;20469;-75
2023/03/10 00:55:20;;;;;;;24.23;20.70;;;1.40;99.90;;;;;;4898225;29;20455;-75
2023/03/10 00:57:48;;;;;;;25.60;21.93;;;1.40;99.90;;;;;;4898121;29;20487;-75
2023/03/10 01:00:17;;;;;;;27.67;22.03;;;1.40;99.90;;;;;;4898318;29;21008;-75
2023/03/10 01:02:45;;;;;;;23.77;20.73;;;1.40;99.90;;;;;;4898000;29;20477;-74
2023/03/10 01:05:14;;;;;;;26.27;21.33;;;1.40;99.90;;;;;;4898004;29;20968;-75
2023/03/10 01:07:42;;;;;;;23.97;21.17;;;1.40;99.90;;;;;;4897994;29;20590;-75
2023/03/10 01:10:12;;;;;;;27.20;22.47;;;1.40;99.90;;;;;;4897850;29;20458;-75
2023/03/10 01:12:41;;;;;;;24.80;20.60;;;1.40;99.90;;;;;;4897777;29;20481;-75
2023/03/10 01:15:11;;;;;;;27.80;22.50;;;1.40;99.90;;;;;;4897733;29;20965;-75
2023/03/10 01:17:39;;;;;;;27.43;21.77;;;1.40;99.90;;;;;;4897987;29;20467;-75
2023/03/10 01:20:13;;;;;;;25.53;21.10;;;1.40;99.90;;;;;;4897696;29;20464;-75
2023/03/10 01:22:42;;;;;;;25.60;21.40;;;1.40;99.90;;;;;;4897798;29;20480;-75
2023/03/10 01:25:14;;;;;;;24.47;21.63;;;1.40;99.90;;;;;;4897640;29;20461;-75
2023/03/10 01:27:43;;;;;;;25.10;20.67;;;1.40;99.90;;;;;;4897829;29;20461;-75
2023/03/10 01:30:13;;;;;;;26.47;21.97;;;1.40;99.90;;;;;;4897761;29;20458;-75
2023/03/10 01:32:41;;;;;;;27.00;21.40;;;1.40;99.90;;;;;;4897461;29;20541;-75
2023/03/10 01:35:10;;;;;;;28.27;22.20;;;1.40;99.90;;;;;;4897492;29;20543;-75
2023/03/10 01:37:38;;;;;;;26.57;21.43;;;1.40;99.90;;;;;;4897516;29;20504;-75
2023/03/10 01:40:15;;;;;;;28.30;22.03;;;1.40;99.90;;;;;;4897372;29;20462;-75
2023/03/10 01:42:44;;;;;;;24.90;20.00;;;1.40;99.90;;;;;;4897281;29;21013;-75
2023/03/10 01:45:46;;;;;;;25.93;21.27;;;1.40;99.90;;;;;;4897349;29;20445;-76
2023/03/10 01:48:17;;;;;;;25.60;20.20;;;1.40;99.90;;;;;;4897514;29;20461;-77
2023/03/10 01:50:49;;;;;;;24.83;20.00;;;1.40;99.90;;;;;;4897231;29;20459;-78
2023/03/10 01:53:19;;;;;;;30.47;22.43;;;1.40;99.90;;;;;;4896901;29;20513;-77
2023/03/10 01:55:51;;;;;;;27.30;21.83;;;1.40;99.90;;;;;;4897304;29;20500;-78
2023/03/10 01:58:24;;;;;;;25.40;21.70;;;1.40;99.90;;;;;;4897184;29;20441;-77
2023/03/10 02:00:54;;;;;;;28.83;22.43;;;1.40;99.90;;;;;;4897216;29;20464;-77
2023/03/10 02:03:26;;;;;;;29.70;21.93;;;1.40;99.90;;;;;;4897100;29;20566;-77
2023/03/10 02:05:58;;;;;;;29.20;20.20;;;1.40;99.90;;;;;;4897063;29;20434;-77
2023/03/10 02:08:31;;;;;;;31.00;22.57;;;1.40;99.90;;;;;;4897182;29;20444;-77
2023/03/10 02:11:01;;;;;;;30.93;22.80;;;1.40;99.90;;;;;;4897183;29;20961;-77
2023/03/10 02:13:30;;;;;;;27.50;22.10;;;1.40;99.90;;;;;;4896915;29;20560;-75
2023/03/10 02:15:59;;;;;;;27.87;20.33;;;1.40;99.90;;;;;;4898319;29;20477;-77
2023/03/10 02:18:30;;;;;;;27.90;21.80;;;1.40;99.90;;;;;;4897196;29;20464;-77
2023/03/10 02:21:13;;;;;;;28.57;22.60;;;1.40;99.90;;;;;;4897734;29;20459;-77
2023/03/10 02:23:49;;;;;;;27.07;21.30;;;1.40;99.90;;;;;;4897481;29;20566;-78
2023/03/10 02:26:36;;;;;;;25.10;21.90;;;1.40;99.90;;;;;;4897327;29;20462;-78
2023/03/10 02:29:08;;;;;;;27.23;20.20;;;1.40;99.90;;;;;;4897758;29;20496;-78
2023/03/10 02:31:37;;;;;;;26.77;21.50;;;1.40;99.90;;;;;;4897731;29;20448;-78
2023/03/10 02:34:06;;;;;;;26.57;19.93;;;1.40;99.90;;;;;;4897820;29;20829;-78
2023/03/10 02:36:34;;;;;;;26.17;21.03;;;1.40;99.90;;;;;;4898572;29;20535;-78
2023/03/10 02:39:02;;;;;;;25.67;21.10;;;1.40;99.90;;;;;;4898841;29;20870;-78
2023/03/10 02:41:34;;;;;;;28.13;21.97;;;1.50;99.90;;;;;;4897340;29;20480;-78
2023/03/10 02:44:08;;;;;;;30.33;21.37;;;1.40;99.90;;;;;;4898616;29;20847;-78
2023/03/10 02:46:36;;;;;;;26.30;20.53;;;1.40;99.90;;;;;;4897451;29;20484;-79
2023/03/10 02:49:09;;;;;;;26.00;21.83;;;1.40;99.90;;;;;;4898519;29;20449;-78
2023/03/10 02:51:43;;;;;;;25.27;21.50;;;1.40;99.90;;;;;;4899518;29;20488;-78
2023/03/10 02:54:15;;;;;;;23.40;19.73;;;1.40;99.90;;;;;;4899264;29;20469;-78
2023/03/10 02:56:44;;;;;;;25.73;21.33;;;1.40;99.90;;;;;;4898826;29;20453;-78
2023/03/10 02:59:15;;;;;;;25.87;20.23;;;1.40;99.90;;;;;;4899162;29;20456;-78
2023/03/10 03:01:48;;;;;;;23.80;19.63;;;1.40;99.90;;;;;;4898894;29;20859;-78
2023/03/10 03:04:18;;;;;;;24.60;20.20;;;1.40;99.90;;;;;;4899428;29;20489;-78
2023/03/10 03:06:47;;;;;;;26.60;22.57;;;1.40;99.90;;;;;;4901920;29;20450;-78
2023/03/10 03:09:15;;;;;;;24.87;20.20;;;1.40;99.90;;;;;;4901934;29;20453;-78
2023/03/10 03:11:45;;;;;;;30.47;22.00;;;1.40;99.90;;;;;;4902770;29;20419;-78
2023/03/10 03:14:15;;;;;;;27.47;21.00;;;1.40;99.90;;;;;;4900714;29;20566;-77
2023/03/10 03:16:48;;;;;;;23.93;21.07;;;1.40;99.90;;;;;;4900773;29;20449;-77
2023/03/10 03:19:16;;;;;;;33.10;21.73;;;1.40;99.90;;;;;;4900545;29;20464;-77
2023/03/10 03:21:48;;;;;;;25.13;21.10;;;1.40;99.90;;;;;;4901078;29;20515;-77
2023/03/10 03:24:17;;;;;;;25.63;20.07;;;1.40;99.90;;;;;;4899854;29;20931;-77
2023/03/10 03:26:47;;;;;;;23.50;19.27;;;1.40;99.90;;;;;;4900202;29;20456;-77
2023/03/10 03:29:20;;;;;;;23.93;20.47;;;1.40;99.90;;;;;;4901029;29;21044;-77
2023/03/10 03:31:48;;;;;;;25.73;20.93;;;1.40;99.90;;;;;;4900363;29;20454;-77
2023/03/10 03:34:23;;;;;;;23.10;19.17;;;1.40;99.90;;;;;;4900171;29;20534;-77
2023/03/10 03:36:55;;;;;;;28.57;20.97;;;1.40;99.90;;;;;;4900487;29;21035;-77
2023/03/10 03:39:28;;;;;;;25.43;18.87;;;1.40;99.90;;;;;;4900354;29;20457;-77
2023/03/10 03:42:00;;;;;;;23.80;17.93;;;1.40;99.90;;;;;;4900370;29;21009;-77
2023/03/10 03:44:35;;;;;;;25.57;20.10;;;1.40;99.90;;;;;;4899948;29;20470;-77
2023/03/10 03:47:04;;;;;;;23.50;16.77;;;1.40;99.90;;;;;;4900058;29;20453;-77
2023/03/10 03:49:34;;;;;;;24.97;20.53;;;1.40;99.90;;;;;;4900139;29;20873;-77
2023/03/10 03:52:02;;;;;;;23.17;17.97;;;1.40;99.90;;;;;;4900029;29;20545;-77
2023/03/10 03:54:31;;;;;;;24.33;19.40;;;1.40;99.90;;;;;;4899980;29;20573;-77
2023/03/10 03:56:59;;;;;;;21.73;17.73;;;1.40;99.90;;;;;;4899908;29;20461;-77
2023/03/10 03:59:27;;;;;;;23.53;19.27;;;1.40;99.90;;;;;;4899733;29;20458;-77
2023/03/10 04:01:58;;;;;;;22.30;18.67;;;1.40;99.90;;;;;;4899732;29;20449;-77
2023/03/10 04:04:26;;;;;;;21.63;18.33;;;1.40;99.90;;;;;;4900538;29;20506;-77
2023/03/10 04:06:55;;;;;;;23.67;17.83;;;1.40;99.90;;;;;;4899538;29;20972;-77
2023/03/10 04:09:24;;;;;;;21.50;17.63;;;1.40;99.90;;;;;;4899190;29;20512;-77
2023/03/10 04:11:52;;;;;;;23.17;18.30;;;1.40;99.90;;;;;;4899344;29;20984;-77
2023/03/10 04:14:21;;;;;;;22.43;19.33;;;1.40;99.90;;;;;;4898985;29;20477;-77
2023/03/10 04:16:49;;;;;;;22.70;18.53;;;1.40;99.90;;;;;;4899525;29;20985;-77
2023/03/10 04:19:19;;;;;;;20.30;16.93;;;1.40;99.90;;;;;;4899201;29;20464;-77
2023/03/10 04:21:50;;;;;;;21.50;17.30;;;1.40;99.90;;;;;;4899475;29;20464;-77
2023/03/10 04:24:19;;;;;;;21.03;17.37;;;1.40;99.90;;;;;;4900200;29;20568;-77
2023/03/10 04:26:48;;;;;;;21.70;17.90;;;1.40;99.90;;;;;;4899094;29;20534;-77
2023/03/10 04:29:16;;;;;;;22.43;17.50;;;1.40;99.90;;;;;;4899075;29;20462;-77
2023/03/10 04:31:45;;;;;;;22.73;18.43;;;1.40;99.90;;;;;;4900508;29;20454;-77
2023/03/10 04:34:33;;;;;;;20.73;18.43;;;1.40;99.90;;;;;;4899070;29;20479;-77
2023/03/10 04:37:02;;;;;;;20.33;18.03;;;1.40;99.90;;;;;;4899084;29;20536;-77
2023/03/10 04:39:31;;;;;;;21.47;17.77;;;1.40;99.90;;;;;;4899497;29;20458;-77
2023/03/10 04:42:00;;;;;;;24.30;18.63;;;1.40;99.90;;;;;;4899697;29;20544;-77
2023/03/10 04:44:29;;;;;;;22.20;18.00;;;1.40;99.90;;;;;;4900177;29;20840;-78
2023/03/10 04:47:01;;;;;;;22.60;18.53;;;1.40;99.90;;;;;;4900785;29;20529;-78
2023/03/10 04:49:32;;;;;;;22.80;18.33;;;1.40;99.90;;;;;;4901074;29;20449;-78
2023/03/10 04:52:01;;;;;;;23.40;19.20;;;1.30;99.90;;;;;;4901342;29;20461;-78
2023/03/10 04:54:29;;;;;;;23.10;17.50;;;1.30;99.90;;;;;;4901270;29;20518;-78
2023/03/10 04:56:59;;;;;;;22.57;18.27;;;1.30;99.90;;;;;;4901092;29;20481;-78
2023/03/10 04:59:27;;;;;;;22.30;18.77;;;1.60;99.90;;;;;;4901334;29;20466;-78
2023/03/10 05:01:55;;;;;;;24.20;19.13;;;1.30;99.90;;;;;;4901931;29;20498;-78
2023/03/10 05:04:24;;;;;;;26.13;20.40;;;1.40;99.90;;;;;;4901560;29;20477;-78
2023/03/10 05:06:55;;;;;;;27.27;20.07;;;1.30;99.90;;;;;;4902396;29;20445;-78
2023/03/10 05:09:28;;;;;;;23.80;18.37;;;1.40;99.90;;;;;;4901253;29;20443;-78
2023/03/10 05:11:57;;;;;;;23.57;19.20;;;1.30;99.90;;;;;;4901355;29;20869;-78
2023/03/10 05:14:26;;;;;;;22.37;18.67;;;1.30;99.90;;;;;;4901487;29;20573;-78
2023/03/10 05:16:55;;;;;;;24.17;19.37;;;1.30;99.90;;;;;;4901365;29;20545;-79
2023/03/10 05:19:23;;;;;;;25.00;19.53;;;1.30;99.90;;;;;;4901004;29;20471;-78
2023/03/10 05:21:54;;;;;;;23.27;18.67;;;1.30;99.90;;;;;;4901588;29;20490;-78
2023/03/10 05:24:23;;;;;;;24.60;18.80;;;1.30;99.90;;;;;;4900825;29;20485;-78
2023/03/10 05:26:51;;;;;;;27.30;22.60;;;1.30;99.90;;;;;;4901103;29;20498;-78
2023/03/10 05:29:19;;;;;;;27.13;20.53;;;1.30;99.90;;;;;;4900860;29;20517;-78
2023/03/10 05:31:55;;;;;;;24.20;18.60;;;1.30;99.90;;;;;;4901709;29;20453;-79
2023/03/10 05:34:30;;;;;;;30.00;22.87;;;1.30;99.90;;;;;;4901740;29;21087;-78
2023/03/10 05:37:03;;;;;;;28.13;22.27;;;1.30;99.90;;;;;;4901922;29;20456;-78
2023/03/10 05:39:31;;;;;;;28.73;22.30;;;1.30;99.90;;;;;;4901591;29;20876;-79
2023/03/10 05:42:03;;;;;;;29.43;23.60;;;1.30;99.90;;;;;;4902111;29;20546;-78
2023/03/10 05:44:33;;;;;;;27.53;23.53;;;1.30;99.90;;;;;;4901558;29;20449;-78
2023/03/10 05:47:04;;;;;;;30.37;24.40;;;1.30;99.90;;;;;;4902099;29;20564;-79
2023/03/10 05:49:33;;;;;;;32.10;26.27;;;1.30;99.90;;;;;;4901702;29;20445;-79
2023/03/10 05:52:05;;;;;;;32.80;25.93;;;1.30;99.90;;;;;;4902452;29;20461;-80
2023/03/10 05:54:33;;;;;;;33.30;26.50;;;1.30;99.90;;;;;;4902448;29;20473;-79
2023/03/10 05:57:01;;;;;;;29.37;24.43;;;1.30;99.90;;;;;;4902645;29;20462;-78
2023/03/10 05:59:31;;;;;;;32.57;25.83;;;1.30;99.90;;;;;;4901418;29;20987;-78
2023/03/10 06:01:59;;;;;;;34.17;27.13;;;1.30;99.90;;;;;;4901978;29;20453;-79
2023/03/10 06:04:31;;;;;;;31.30;25.47;;;1.30;99.90;;;;;;4901226;29;20465;-78
2023/03/10 06:06:59;;;;;;;33.93;27.63;;;1.30;99.90;;;;;;4901372;29;20467;-78
2023/03/10 06:09:31;;;;;;;33.23;27.00;;;1.30;99.90;;;;;;4900690;29;20488;-78
2023/03/10 06:12:00;;;;;;;33.00;25.30;;;1.30;99.90;;;;;;4900825;29;20446;-78
2023/03/10 06:14:28;;;;;;;33.60;25.53;;;1.30;99.90;;;;;;4900942;29;20489;-78
2023/03/10 06:16:56;;;;;;;32.30;26.30;;;1.30;99.90;;;;;;4901322;29;20457;-78
2023/03/10 06:19:25;;;;;;;31.63;25.67;;;1.80;99.90;;;;;;4900887;29;20457;-79
2023/03/10 06:21:53;;;;;;;32.47;25.50;;;1.40;99.90;;;;;;4902129;29;20932;-78
2023/03/10 06:24:21;;;;;;;32.07;26.07;;;1.30;99.90;;;;;;4902727;29;20471;-79
2023/03/10 06:26:50;;;;;;;34.80;27.60;;;1.40;99.90;;;;;;4899526;29;20473;-78
2023/03/10 06:29:19;;;;;;;34.13;27.90;;;1.60;99.90;;;;;;4899709;29;20458;-78
2023/03/10 06:31:47;;;;;;;32.10;25.40;;;1.30;99.90;;;;;;4899579;29;20548;-78
2023/03/10 06:34:15;;;;;;;32.77;25.90;;;1.40;99.90;;;;;;4899060;29;20862;-79
2023/03/10 06:36:43;;;;;;;32.43;26.93;;;3.00;99.90;;;;;;4899035;29;20466;-79
2023/03/10 06:39:11;;;;;;;35.17;28.03;;;1.40;99.90;;;;;;4902358;29;20463;-79
2023/03/10 06:41:40;;;;;;;32.80;26.83;;;1.40;99.90;;;;;;4903112;29;20556;-79
2023/03/10 06:44:17;;;;;;;33.23;28.03;;;1.40;99.90;;;;;;4904157;29;20537;-79
2023/03/10 06:46:45;;;;;;;30.90;25.37;;;1.40;99.90;;;;;;4904041;29;20501;-78
2023/03/10 06:49:13;;;;;;;33.40;25.70;;;1.40;99.90;;;;;;4903803;29;20453;-79
2023/03/10 06:51:41;;;;;;;33.80;26.97;;;2.00;99.90;;;;;;4903925;29;20449;-79
2023/03/10 06:54:10;;;;;;;33.67;26.43;;;1.40;99.90;;;;;;4902860;29;20504;-79
2023/03/10 06:56:38;;;;;;;31.77;26.63;;;1.40;99.90;;;;;;4902874;29;20459;-79
2023/03/10 06:59:06;;;;;;;32.17;25.83;;;1.40;99.90;;;;;;4903292;29;20449;-79
2023/03/10 07:01:36;;;;;;;31.07;25.00;;;1.40;99.90;;;;;;4903395;29;20467;-79
2023/03/10 07:04:04;;;;;;;31.10;25.97;;;1.50;99.90;;;;;;4902778;29;20517;-79
2023/03/10 07:06:33;;;;;;;31.67;25.63;;;1.40;99.90;;;;;;4903477;29;20479;-79
2023/03/10 07:09:01;;;;;;;32.97;26.30;;;1.70;99.90;;;;;;4902757;29;20951;-80
2023/03/10 07:11:29;;;;;;;30.70;23.00;;;1.40;99.90;;;;;;4902867;29;20455;-79
2023/03/10 07:13:57;;;;;;;28.70;24.33;;;1.40;99.90;;;;;;4903432;29;21014;-79
2023/03/10 07:16:26;;;;;;;30.33;26.40;;;1.40;99.90;;;;;;4903169;29;20452;-79
2023/03/10 07:18:55;;;;;;;33.10;27.53;;;1.40;99.90;;;;;;4904199;29;20445;-79
2023/03/10 07:21:23;;;;;;;29.73;24.83;;;1.40;99.90;;;;;;4903785;29;20457;-79
2023/03/10 07:23:51;;;;;;;30.00;25.30;;;1.80;99.90;;;;;;4902872;29;20465;-79
2023/03/10 07:26:20;;;;;;;32.13;26.27;;;1.40;99.90;;;;;;4902314;29;20866;-79
2023/03/10 07:28:48;;;;;;;33.23;26.50;;;1.40;99.90;;;;;;4901732;29;20449;-80
2023/03/10 07:31:16;;;;;;;31.87;26.90;;;1.80;99.90;;;;;;4901909;29;21009;-79
2023/03/10 07:33:45;;;;;;;34.33;28.77;;;1.40;99.90;;;;;;4901400;29;20561;-80
2023/03/10 07:36:16;;;;;;;33.23;27.50;;;1.40;99.90;;;;;;4902287;29;20513;-80
2023/03/10 07:38:44;;;;;;;35.10;27.00;;;1.40;99.90;;;;;;4901836;29;20448;-80
2023/03/10 07:41:16;;;;;;;33.03;26.73;;;1.40;99.90;;;;;;4901529;29;20481;-81
2023/03/10 07:43:45;;;;;;;35.10;28.33;;;1.40;99.90;;;;;;4902848;29;20537;-81
2023/03/10 07:46:15;;;;;;;31.27;27.13;;;1.40;99.90;;;;;;4906105;29;20480;-82
2023/03/10 07:48:43;;;;;;;33.40;28.37;;;1.40;99.90;;;;;;4905012;29;20449;-82
2023/03/10 07:51:15;;;;;;;33.97;27.80;;;1.40;99.90;;;;;;4904268;29;20458;-82
2023/03/10 07:53:44;;;;;;;33.37;27.60;;;1.40;99.90;;;;;;4906147;29;20501;-82
2023/03/10 07:56:13;;;;;;;34.20;28.57;;;1.40;99.90;;;;;;4904592;29;20909;-82
2023/03/10 07:58:41;;;;;;;33.57;27.27;;;3.60;99.90;;;;;;4904106;29;20458;-82
2023/03/10 08:01:15;;;;;;;31.40;25.17;;;1.60;99.90;;;;;;4903442;29;20451;-82
2023/03/10 08:03:43;;;;;;;34.50;28.83;;;1.40;99.90;;;;;;4903314;29;20479;-83
2023/03/10 08:06:19;;;;;;;35.03;27.40;;;1.40;99.90;;;;;;4903202;29;20514;-82
2023/03/10 08:08:47;;;;;;;36.10;29.03;;;1.40;99.90;;;;;;4904143;29;20453;-84
2023/03/10 08:11:15;;;;;;;31.80;28.00;;;1.50;99.90;;;;;;4903604;29;20808;-83
2023/03/10 08:13:46;;;;;;;33.60;26.90;;;1.50;99.90;;;;;;4903542;29;20480;-83
2023/03/10 08:16:14;;;;;;;33.63;26.33;;;1.50;99.90;;;;;;4903483;29;20451;-84
2023/03/10 08:18:43;;;;;;;34.30;28.23;;;1.50;99.90;;;;;;4902922;29;20502;-84
2023/03/10 08:21:11;;;;;;;34.07;28.40;;;1.50;99.90;;;;;;4902769;29;20544;-85
2023/03/10 08:23:41;;;;;;;35.33;27.60;;;1.50;99.90;;;;;;4902663;29;20478;-84
2023/03/10 08:26:13;;;;;;;33.13;27.80;;;1.50;99.90;;;;;;4902701;29;20471;-84
2023/03/10 08:28:42;;;;;;;38.73;29.10;;;2.00;99.90;;;;;;4903213;29;20519;-84
2023/03/10 08:31:11;;;;;;;36.70;28.70;;;1.50;99.90;;;;;;4903084;29;20488;-84
2023/03/10 08:33:40;;;;;;;34.80;28.27;;;1.60;99.90;;;;;;4903638;29;20477;-84
2023/03/10 08:36:12;;;;;;;35.63;28.93;;;1.60;99.90;;;;;;4905479;29;20489;-84
2023/03/10 08:38:42;;;;;;;34.30;27.83;;;1.60;99.90;;;;;;4903652;29;20484;-83
2023/03/10 08:41:13;;;;;;;34.47;27.83;;;1.60;99.90;;;;;;4904544;29;20544;-83
2023/03/10 08:43:42;;;;;;;39.73;29.47;;;1.70;99.90;;;;;;4902879;29;20536;-82
2023/03/10 08:46:11;;;;;;;34.57;28.40;;;1.70;99.90;;;;;;4902565;29;20453;-82
2023/03/10 08:48:40;;;;;;;32.50;27.60;;;1.70;99.90;;;;;;4902389;29;20530;-82
2023/03/10 08:51:10;;;;;;;34.40;28.83;;;1.80;99.90;;;;;;4902744;29;20453;-81
2023/03/10 08:53:46;;;;;;;32.50;27.00;;;1.80;99.90;;;;;;4902415;29;20477;-81
2023/03/10 08:56:15;;;;;;;32.73;28.10;;;1.80;99.90;;;;;;4902663;29;20445;-81
2023/03/10 08:58:43;;;;;;;32.80;27.97;;;1.90;99.90;;;;;;4904003;29;20442;-80
2023/03/10 09:01:12;;;;;;;31.53;27.37;;;1.80;99.90;;;;;;4903124;29;20483;-80
2023/03/10 09:03:42;;;;;;;31.57;27.47;;;1.90;99.90;;;;;;4901515;29;20480;-79
2023/03/10 09:06:11;;;;;;;32.43;28.60;;;2.00;99.90;;;;;;4902491;29;20839;-80
2023/03/10 09:08:40;;;;;;;29.80;26.00;;;2.00;99.90;;;;;;4902100;29;20510;-79
2023/03/10 09:11:14;;;;;;;30.67;27.40;;;2.00;99.90;;;;;;4904314;29;20506;-79
2023/03/10 09:13:42;;;;;;;30.57;27.27;;;2.10;99.90;;;;;;4901815;29;20861;-79
2023/03/10 09:16:12;;;;;;;31.07;26.80;;;2.10;99.90;;;;;;4901827;29;20463;-79
2023/03/10 09:18:40;;;;;;;30.70;27.00;;;2.10;99.90;;;;;;4901742;29;20455;-79
2023/03/10 09:21:11;;;;;;;30.87;26.97;;;2.20;99.90;;;;;;4901458;29;20461;-79
2023/03/10 09:23:42;;;;;;;34.83;29.27;;;2.20;99.90;;;;;;4903900;29;20563;-78
2023/03/10 09:26:12;;;;;;;32.73;27.97;;;2.60;99.90;;;;;;4903175;29;20487;-79
2023/03/10 09:28:40;;;;;;;31.50;26.83;;;2.20;99.90;;;;;;4902204;29;20554;-78
2023/03/10 09:31:09;;;;;;;28.67;25.57;;;2.30;99.90;;;;;;4903189;29;20467;-79
2023/03/10 09:33:41;;;;;;;31.27;27.90;;;2.30;99.90;;;;;;4902783;29;20512;-78
2023/03/10 09:36:10;;;;;;;30.13;26.80;;;2.30;99.90;;;;;;4903060;29;20450;-79
2023/03/10 09:38:38;;;;;;;29.93;26.73;;;2.30;99.90;;;;;;4902668;29;20465;-78
2023/03/10 09:41:22;;;;;;;30.53;26.97;;;2.30;99.90;;;;;;4901486;29;20556;-78
2023/03/10 09:43:59;;;;;;;28.83;25.03;;;2.40;99.90;;;;;;4903746;29;20513;-79
2023/03/10 09:46:35;;;;;;;31.33;27.40;;;2.40;99.90;;;;;;4903481;29;20442;-79
2023/03/10 09:49:13;;;;;;;28.33;25.03;;;2.40;99.90;;;;;;4902872;29;20464;-79
2023/03/10 09:51:46;;;;;;;28.87;25.87;;;2.40;99.90;;;;;;4904160;29;20454;-78
2023/03/10 09:54:30;;;;;;;28.53;25.43;;;2.50;99.90;;;;;;4903188;29;20489;-79
2023/03/10 09:57:03;;;;;;;28.43;25.37;;;2.70;99.90;;;;;;4902652;29;20452;-79
2023/03/10 09:59:35;;;;;;;27.57;24.57;;;2.60;99.90;;;;;;4903612;29;20432;-78
2023/03/10 10:02:15;;;;;;;27.33;24.37;;;2.60;99.90;;;;;;4902013;29;20448;-78
2023/03/10 10:04:43;;;;;;;27.20;24.30;;;2.60;99.90;;;;;;4902557;29;20808;-78
2023/03/10 10:07:16;;;;;;;27.57;24.57;;;2.60;99.90;;;;;;4901136;29;20599;-78
2023/03/10 10:09:52;;;;;;;25.80;23.20;;;2.60;99.90;;;;;;4900778;29;20455;-78
2023/03/10 10:12:23;;;;;;;27.27;24.40;;;2.70;99.90;;;;;;4900712;29;20479;-78
2023/03/10 10:14:56;;;;;;;26.10;23.40;;;2.70;99.90;;;;;;4899411;29;20447;-78
2023/03/10 10:17:37;;;;;;;26.60;23.90;;;2.70;99.90;;;;;;4900760;29;20454;-77
2023/03/10 10:20:22;;;;;;;26.03;23.40;;;2.80;99.90;;;;;;4900047;29;20453;-77
2023/03/10 10:22:51;;;;;;;24.93;22.43;;;2.80;99.90;;;;;;4899394;29;20472;-78
2023/03/10 10:25:22;;;;;;;25.27;22.70;;;3.10;99.90;;;;;;4897044;29;20469;-77
2023/03/10 10:27:54;;;;;;;25.30;22.70;;;2.90;99.90;;;;;;4896943;29;20466;-76
2023/03/10 10:30:29;;;;;;;24.20;21.80;;;2.90;99.90;;;;;;4896949;29;20449;-76
2023/03/10 10:32:59;;;;;;;25.57;22.97;;;3.00;99.90;;;;;;4896865;29;20486;-76
2023/03/10 10:35:30;;;;;;;25.83;23.30;;;2.90;99.90;;;;;;4897187;29;20951;-76
2023/03/10 10:38:00;;;;;;;26.20;23.50;;;3.00;99.90;;;;;;4897168;29;20458;-76
2023/03/10 10:40:33;;;;;;;34.13;30.53;;;3.00;99.90;;;;;;4896821;29;20446;-76
2023/03/10 10:43:06;;;;;;;36.63;31.50;;;3.00;99.90;;;;;;4896813;29;20493;-75
2023/03/10 10:45:36;;;;;;;30.07;26.97;;;3.00;99.90;;;;;;4898318;29;20926;-75
2023/03/10 10:48:05;;;;;;;38.00;33.97;;;3.00;99.90;;;;;;4896665;29;20477;-75
2023/03/10 10:50:35;;;;;;;32.17;28.97;;;3.00;99.90;;;;;;4897968;29;20449;-75
2023/03/10 10:53:19;;;;;;;38.83;34.83;;;3.10;99.90;;;;;;4896574;29;20485;-76
2023/03/10 10:56:00;;;;;;;28.83;26.00;;;3.10;99.90;;;;;;4896783;29;20456;-74
2023/03/10 10:58:33;;;;;;;26.20;23.57;;;3.10;99.90;;;;;;4896663;29;20462;-76
2023/03/10 11:01:03;;;;;;;25.00;22.53;;;3.10;99.90;;;;;;4896750;29;20453;-74
2023/03/10 11:03:35;;;;;;;25.57;23.07;;;3.10;99.90;;;;;;4896630;29;20558;-74
2023/03/10 11:06:14;;;;;;;26.13;23.53;;;3.10;99.90;;;;;;4898445;29;20481;-74
2023/03/10 11:08:49;;;;;;;24.40;22.10;;;3.10;99.90;;;;;;4896521;29;21009;-74
2023/03/10 11:11:23;;;;;;;25.33;22.87;;;3.10;99.90;;;;;;4898021;29;20432;-74
2023/03/10 11:14:01;;;;;;;25.73;23.23;;;3.10;99.90;;;;;;4896489;29;20482;-74
2023/03/10 11:16:39;;;;;;;25.13;22.53;;;3.10;99.90;;;;;;4896550;29;20459;-74
2023/03/10 11:19:15;;;;;;;24.37;21.77;;;3.10;99.90;;;;;;4896836;29;20448;-76
2023/03/10 11:21:47;;;;;;;26.33;23.73;;;3.10;99.90;;;;;;4897982;29;20429;-74
2023/03/10 11:24:23;;;;;;;24.73;22.33;;;3.10;99.90;;;;;;4896712;29;20512;-74
2023/03/10 11:26:58;;;;;;;25.97;23.37;;;3.10;99.90;;;;;;4901554;29;20435;-74
2023/03/10 11:29:49;;;;;;;25.47;22.97;;;3.10;99.90;;;;;;4901891;29;20856;-74
2023/03/10 11:32:26;;;;;;;24.20;21.80;;;3.20;99.90;;;;;;4899728;29;20460;-74
2023/03/10 11:34:55;;;;;;;23.53;21.30;;;3.20;99.90;;;;;;4899732;29;20543;-74
2023/03/10 11:37:30;;;;;;;25.43;22.83;;;3.10;99.90;;;;;;4901169;29;20444;-74
2023/03/10 11:40:18;;;;;;;26.10;23.50;;;3.20;99.90;;;;;;4899608;29;20448;-74
2023/03/10 11:42:55;;;;;;;27.90;25.17;;;3.20;99.90;;;;;;4899493;29;21081;-74
2023/03/10 11:45:30;;;;;;;26.60;23.90;;;3.20;99.90;;;;;;4899527;29;20890;-74
2023/03/10 11:48:17;;;;;;;27.20;24.50;;;3.20;99.90;;;;;;4899539;29;20854;-75
2023/03/10 11:50:51;;;;;;;25.70;23.10;;;3.20;99.90;;;;;;4899377;29;20820;-74
2023/03/10 11:53:31;;;;;;;26.83;24.20;;;3.20;99.90;;;;;;4899423;29;20486;-74
2023/03/10 11:56:01;;;;;;;26.07;23.50;;;3.20;99.90;;;;;;4900804;29;20426;-74
2023/03/10 11:58:41;;;;;;;28.50;25.80;;;3.20;99.90;;;;;;4900728;29;20450;-74
2023/03/10 12:01:14;;;;;;;27.47;24.67;;;3.20;99.90;;;;;;4900929;29;20437;-74
2023/03/10 12:03:50;;;;;;;26.90;24.20;;;3.10;99.90;;;;;;4901029;29;20985;-74
2023/03/10 12:06:24;;;;;;;26.50;24.00;;;3.10;99.90;;;;;;4899842;29;20466;-74
2023/03/10 12:08:56;;;;;;;27.03;24.43;;;3.10;99.90;;;;;;4899422;29;20510;-74
2023/03/10 12:11:27;;;;;;;27.07;24.37;;;3.10;99.90;;;;;;4900817;29;20425;-74
2023/03/10 12:13:59;;;;;;;27.33;24.73;;;3.00;99.90;;;;;;4899194;29;20479;-74
2023/03/10 12:16:31;;;;;;;27.37;24.67;;;3.00;99.90;;;;;;4900349;29;20421;-74
2023/03/10 12:19:00;;;;;;;28.93;25.87;;;3.00;99.90;;;;;;4900574;29;20455;-74
2023/03/10 12:21:29;;;;;;;29.30;26.43;;;3.10;99.90;;;;;;4900135;29;20844;-74
2023/03/10 12:23:59;;;;;;;28.33;25.60;;;3.10;99.90;;;;;;4898822;29;20568;-74
2023/03/10 12:26:59;;;;;;;29.67;26.67;;;3.00;99.90;;;;;;4899960;29;20946;-74
2023/03/10 12:29:40;;;;;;;28.67;25.83;;;3.00;99.90;;;;;;4898708;29;20584;-74
2023/03/10 12:32:41;;;;;;;28.40;25.60;;;3.00;99.90;;;;;;4900019;29;20425;-74
2023/03/10 12:35:40;;;;;;;29.40;26.30;;;3.00;99.90;;;;;;4898571;29;20459;-74
2023/03/10 12:38:37;;;;;;;28.40;25.60;;;3.00;99.90;;;;;;4899874;29;20513;-74
2023/03/10 12:41:06;;;;;;;28.27;25.40;;;3.00;99.90;;;;;;4899920;29;20927;-75
2023/03/10 12:43:54;;;;;;;28.00;25.30;;;2.90;99.90;;;;;;4899937;29;20519;-73
2023/03/10 12:46:28;;;;;;;30.83;27.77;;;2.90;99.90;;;;;;4899916;29;20432;-73
2023/03/10 12:49:10;;;;;;;30.73;27.60;;;2.80;99.90;;;;;;4898279;29;20476;-75
2023/03/10 12:51:43;;;;;;;30.93;27.83;;;2.80;99.90;;;;;;4898423;29;20966;-74
2023/03/10 12:54:44;;;;;;;33.33;29.83;;;2.80;99.90;;;;;;4898257;29;20490;-73
2023/03/10 12:57:18;;;;;;;32.83;29.53;;;2.70;99.90;;;;;;4892720;29;20567;-73